Aviation Digital Data Service (ADDS)

Output produced by METARs form (1920 UTC 23 June 2018)
found at http://aviationweather.gov/adds/metars/
 
KTOL 231743Z 2318/2418 27007KT P6SM BKN025 
     FM232200 26007KT P6SM SCT030 BKN120 
     FM241300 27009KT P6SM BKN035